Time;durP1;ratioP1;P1;durP2;ratioP2;P2;SDS_P1;SDS_P2;PMS_P1;PMS_P2;Temp;Humidity;BMP_temperature;BMP_pressure;BME280_temperature;BME280_humidity;BME280_pressure;Samples;Min_cycle;Max_cycle;Signal;HPM_P1;HPM_P2
2024/01/06 00:00:49;;;;;;;11.37;1.90;;;;;;;8.18;67.89;99422.59;4965313;28;20210;-74
2024/01/06 00:03:17;;;;;;;5.47;1.53;;;;;;;8.20;67.94;99428.53;4965272;28;20296;-74
2024/01/06 00:05:45;;;;;;;6.37;2.33;;;;;;;8.22;67.82;99426.56;4966760;28;20242;-74
2024/01/06 00:08:13;;;;;;;8.23;1.97;;;;;;;8.22;67.72;99431.84;4969204;28;20214;-73
2024/01/06 00:10:41;;;;;;;4.53;1.50;;;;;;;8.20;67.87;99432.00;4969647;28;20198;-72
2024/01/06 00:13:09;;;;;;;6.90;1.93;;;;;;;8.21;67.90;99430.19;4969955;28;20276;-74
2024/01/06 00:15:38;;;;;;;8.10;1.80;;;;;;;8.23;67.85;99433.50;4967809;28;20645;-73
2024/01/06 00:18:08;;;;;;;7.57;1.87;;;;;;;8.24;67.65;99436.00;4972626;28;20216;-73
2024/01/06 00:20:36;;;;;;;6.57;1.97;;;;;;;8.28;67.50;99437.31;4970299;28;20296;-73
2024/01/06 00:23:04;;;;;;;7.40;1.77;;;;;;;8.26;67.34;99430.56;4969203;28;20199;-73
2024/01/06 00:25:32;;;;;;;7.20;1.70;;;;;;;8.29;67.25;99443.41;4968769;28;20237;-73
2024/01/06 00:28:00;;;;;;;5.97;2.30;;;;;;;8.28;67.25;99442.59;4967065;28;20684;-74
2024/01/06 00:30:27;;;;;;;5.53;1.70;;;;;;;8.26;67.25;99438.47;4969830;28;20248;-74
2024/01/06 00:32:57;;;;;;;10.17;2.27;;;;;;;8.25;67.22;99439.47;4971218;28;20209;-74
2024/01/06 00:35:26;;;;;;;5.87;2.00;;;;;;;8.20;67.23;99444.38;4966093;28;20313;-74
2024/01/06 00:37:55;;;;;;;9.43;2.50;;;;;;;8.20;67.38;99447.00;4969055;28;20234;-75
2024/01/06 00:40:23;;;;;;;10.00;1.97;;;;;;;8.18;67.39;99451.66;4970757;28;20750;-74
2024/01/06 00:42:51;;;;;;;9.20;2.27;;;;;;;8.13;67.52;99454.75;4968805;28;21353;-74
2024/01/06 00:45:18;;;;;;;6.10;2.07;;;;;;;8.11;67.51;99455.88;4968676;28;20663;-74
2024/01/06 00:47:46;;;;;;;11.37;2.67;;;;;;;8.02;67.71;99452.34;4966391;28;20214;-73
2024/01/06 00:50:14;;;;;;;7.10;2.10;;;;;;;8.06;67.79;99459.00;4965481;28;20304;-73
2024/01/06 00:52:43;;;;;;;5.03;1.90;;;;;;;8.03;67.79;99458.47;4970188;28;20217;-73
2024/01/06 00:55:11;;;;;;;5.93;1.90;;;;;;;8.07;67.97;99465.09;4970013;28;20356;-73
2024/01/06 00:57:39;;;;;;;5.10;1.63;;;;;;;8.08;67.95;99461.50;4970279;28;20241;-73
2024/01/06 01:00:08;;;;;;;4.37;1.60;;;;;;;8.08;68.31;99462.31;4968846;28;20923;-74
2024/01/06 01:02:36;;;;;;;5.37;1.73;;;;;;;8.10;68.30;99459.50;4969565;28;20220;-74
2024/01/06 01:05:08;;;;;;;4.53;1.60;;;;;;;8.09;68.39;99458.66;4967892;28;20228;-73
2024/01/06 01:07:36;;;;;;;8.03;1.97;;;;;;;8.12;68.40;99468.94;4969122;28;20683;-74
2024/01/06 01:10:05;;;;;;;10.67;1.93;;;;;;;8.13;68.36;99470.59;4969979;28;20230;-74
2024/01/06 01:12:33;;;;;;;6.97;1.80;;;;;;;8.19;68.33;99469.94;4969076;28;20226;-73
2024/01/06 01:15:01;;;;;;;5.50;1.63;;;;;;;8.26;68.17;99470.16;4967354;28;20205;-72
2024/01/06 01:17:29;;;;;;;5.00;2.13;;;;;;;8.28;68.04;99479.56;4965937;28;20222;-73
2024/01/06 01:19:57;;;;;;;4.23;1.63;;;;;;;8.32;67.97;99480.13;4966420;28;20218;-73
2024/01/06 01:22:25;;;;;;;7.03;1.93;;;;;;;8.36;67.72;99481.44;4967127;28;20217;-74
2024/01/06 01:24:53;;;;;;;7.33;2.53;;;;;;;8.41;67.51;99489.75;4969176;28;20312;-73
2024/01/06 01:27:23;;;;;;;7.73;2.27;;;;;;;8.42;67.34;99480.00;4967282;28;20222;-73
2024/01/06 01:29:52;;;;;;;8.77;3.03;;;;;;;8.42;67.29;99488.75;4969869;28;20215;-74
2024/01/06 01:32:20;;;;;;;7.17;1.90;;;;;;;8.45;67.31;99482.31;4968819;28;20855;-74
2024/01/06 01:34:48;;;;;;;9.23;2.33;;;;;;;8.49;67.13;99494.25;4970303;28;20795;-74
2024/01/06 01:37:16;;;;;;;7.30;1.67;;;;;;;8.50;67.05;99491.44;4971747;28;20232;-76
2024/01/06 01:39:46;;;;;;;6.67;2.27;;;;;;;8.52;66.88;99492.13;4970368;28;20920;-73
2024/01/06 01:42:14;;;;;;;7.43;1.73;;;;;;;8.53;66.94;99482.38;4969267;28;20622;-74
2024/01/06 01:44:44;;;;;;;7.63;1.97;;;;;;;8.50;66.85;99478.22;4968494;28;20353;-74
2024/01/06 01:47:12;;;;;;;6.70;2.23;;;;;;;8.48;66.95;99474.09;4964935;28;20254;-73
2024/01/06 01:49:41;;;;;;;9.60;2.40;;;;;;;8.48;67.01;99474.09;4968405;28;20672;-74
2024/01/06 01:52:09;;;;;;;12.17;2.83;;;;;;;8.47;67.13;99486.47;4970631;28;20221;-73
2024/01/06 01:54:37;;;;;;;7.87;2.27;;;;;;;8.48;67.07;99493.41;4966395;28;20324;-73
2024/01/06 01:57:05;;;;;;;6.93;2.70;;;;;;;8.50;67.14;99486.16;4968013;28;20240;-74
2024/01/06 01:59:34;;;;;;;7.90;2.57;;;;;;;8.57;67.01;99487.16;4968185;28;20209;-72
2024/01/06 02:02:04;;;;;;;6.93;1.90;;;;;;;8.55;67.01;99486.50;4967918;28;20209;-74
2024/01/06 02:04:32;;;;;;;6.93;2.27;;;;;;;8.55;67.00;99481.22;4970877;28;20221;-73
2024/01/06 02:07:00;;;;;;;8.17;1.83;;;;;;;8.48;67.07;99479.38;4968909;28;20249;-75
2024/01/06 02:09:29;;;;;;;9.57;2.30;;;;;;;8.41;67.40;99479.19;4966542;28;20588;-74
2024/01/06 02:11:58;;;;;;;6.97;2.07;;;;;;;8.36;67.58;99489.38;4968256;28;20273;-72
2024/01/06 02:14:26;;;;;;;7.70;2.00;;;;;;;8.32;67.73;99488.06;4968198;28;20221;-75
2024/01/06 02:16:54;;;;;;;4.03;1.77;;;;;;;8.31;67.82;99486.38;4968322;28;20226;-73
2024/01/06 02:19:23;;;;;;;7.40;2.23;;;;;;;8.31;67.85;99489.03;4967201;28;20210;-74
2024/01/06 02:21:53;;;;;;;6.73;2.10;;;;;;;8.32;67.85;99490.69;4967634;28;20245;-74
2024/01/06 02:24:21;;;;;;;6.40;2.23;;;;;;;8.31;67.69;99489.03;4965773;28;20242;-73
2024/01/06 02:26:49;;;;;;;6.30;2.10;;;;;;;8.27;67.83;99495.56;4968249;28;20214;-74
2024/01/06 02:29:17;;;;;;;5.47;2.23;;;;;;;8.30;67.88;99500.53;4965697;28;20582;-74
2024/01/06 02:31:44;;;;;;;7.67;1.90;;;;;;;8.26;67.91;99501.88;4967465;28;20210;-76
2024/01/06 02:34:12;;;;;;;6.10;2.17;;;;;;;8.29;67.86;99501.53;4965574;28;20849;-73
2024/01/06 02:36:40;;;;;;;7.53;2.47;;;;;;;8.28;67.78;99505.16;4968312;28;20258;-73
2024/01/06 02:39:10;;;;;;;7.23;2.30;;;;;;;8.30;67.67;99503.19;4965558;28;20229;-73
2024/01/06 02:41:38;;;;;;;8.10;2.37;;;;;;;8.36;67.60;99502.59;4966836;28;20217;-75
2024/01/06 02:44:06;;;;;;;9.53;2.30;;;;;;;8.39;67.55;99512.84;4967451;28;20764;-72
2024/01/06 02:46:36;;;;;;;7.40;2.33;;;;;;;8.44;67.45;99504.47;4969409;28;20300;-74
2024/01/06 02:49:04;;;;;;;6.47;2.20;;;;;;;8.49;67.20;99508.28;4967837;28;20816;-74
2024/01/06 02:51:32;;;;;;;6.40;1.90;;;;;;;8.52;67.14;99510.63;4964644;28;20211;-76
2024/01/06 02:54:00;;;;;;;6.40;2.00;;;;;;;8.51;66.97;99500.19;4965985;28;20206;-73
2024/01/06 02:56:29;;;;;;;7.30;1.80;;;;;;;8.48;66.89;99511.06;4968319;28;20237;-73
2024/01/06 02:58:57;;;;;;;6.13;1.70;;;;;;;8.46;67.19;99507.75;4968391;28;20213;-73
2024/01/06 03:01:24;;;;;;;5.70;2.10;;;;;;;8.46;67.16;99513.03;4968026;28;20210;-73
2024/01/06 03:03:52;;;;;;;5.80;2.10;;;;;;;8.47;67.31;99506.78;4965833;28;20217;-76
2024/01/06 03:06:20;;;;;;;10.30;2.23;;;;;;;8.45;67.12;99509.56;4967395;28;20218;-73
2024/01/06 03:08:48;;;;;;;6.70;1.83;;;;;;;8.40;67.24;99503.94;4968737;28;20206;-74
2024/01/06 03:11:16;;;;;;;4.83;1.70;;;;;;;8.43;67.50;99502.81;4964860;28;20230;-72
2024/01/06 03:13:45;;;;;;;6.33;2.17;;;;;;;8.45;67.18;99512.22;4964420;28;20214;-74
2024/01/06 03:16:13;;;;;;;7.13;2.00;;;;;;;8.47;67.24;99509.41;4966609;28;20273;-74
2024/01/06 03:18:40;;;;;;;4.60;1.80;;;;;;;8.50;67.26;99517.88;4966891;28;20209;-73
2024/01/06 03:21:17;;;;;;;5.43;1.87;;;;;;;8.50;67.07;99515.22;4968264;28;20207;-73
2024/01/06 03:23:45;;;;;;;7.17;1.53;;;;;;;8.52;67.15;99521.19;4967147;28;20230;-73
2024/01/06 03:26:14;;;;;;;5.27;2.03;;;;;;;8.46;67.15;99524.44;4966334;28;20206;-73
2024/01/06 03:28:42;;;;;;;7.27;1.80;;;;;;;8.45;67.29;99522.78;4967977;28;20298;-74
2024/01/06 03:31:11;;;;;;;10.00;1.70;;;;;;;8.43;67.22;99523.94;4969295;28;20263;-74
2024/01/06 03:33:39;;;;;;;4.60;1.80;;;;;;;8.42;67.39;99538.97;4966304;28;20724;-72
2024/01/06 03:36:08;;;;;;;3.87;1.50;;;;;;;8.41;67.34;99537.31;4969002;28;20839;-73
2024/01/06 03:38:36;;;;;;;6.47;2.10;;;;;;;8.41;67.21;99539.94;4966679;28;20301;-74
2024/01/06 03:41:04;;;;;;;8.07;1.77;;;;;;;8.41;67.45;99542.59;4969166;28;20222;-74
2024/01/06 03:43:31;;;;;;;4.17;1.33;;;;;;;8.41;67.47;99542.59;4967353;28;20206;-74
2024/01/06 03:46:00;;;;;;;5.73;2.00;;;;;;;8.44;67.25;99552.84;4967545;28;20242;-74
2024/01/06 03:48:29;;;;;;;8.20;2.07;;;;;;;8.45;67.45;99551.84;4968068;28;20222;-75
2024/01/06 03:50:57;;;;;;;6.27;1.83;;;;;;;8.44;67.50;99552.84;4969138;28;20207;-74
2024/01/06 03:53:25;;;;;;;7.30;1.57;;;;;;;8.45;67.44;99551.84;4970196;28;20218;-74
2024/01/06 03:55:54;;;;;;;7.87;2.03;;;;;;;8.41;67.80;99547.88;4969462;28;20253;-74
2024/01/06 03:58:21;;;;;;;6.60;2.10;;;;;;;8.20;68.39;99544.72;4967640;28;20715;-74
2024/01/06 04:00:49;;;;;;;8.20;2.20;;;;;;;8.12;69.14;99548.13;4972151;28;20234;-74
2024/01/06 04:03:17;;;;;;;6.00;1.73;;;;;;;8.09;69.26;99548.44;4971641;28;20245;-74
2024/01/06 04:05:47;;;;;;;6.90;2.13;;;;;;;8.07;69.45;99547.78;4971229;28;20695;-75
2024/01/06 04:08:14;;;;;;;6.37;1.83;;;;;;;8.16;69.40;99546.03;4970111;28;20213;-74
2024/01/06 04:10:42;;;;;;;7.27;1.90;;;;;;;8.28;68.96;99552.69;4968841;28;20207;-72
2024/01/06 04:13:11;;;;;;;5.60;1.87;;;;;;;8.30;69.00;99550.72;4969302;28;20291;-75
2024/01/06 04:15:39;;;;;;;4.73;1.80;;;;;;;8.36;68.58;99560.69;4970081;28;20233;-74
2024/01/06 04:18:08;;;;;;;5.07;2.10;;;;;;;8.40;68.22;99551.50;4970588;28;20234;-74
2024/01/06 04:20:37;;;;;;;3.17;1.33;;;;;;;8.31;68.32;99560.34;4969685;28;20297;-74
2024/01/06 04:23:05;;;;;;;4.87;1.20;;;;;;;8.21;68.38;99557.78;4967844;28;20296;-74
2024/01/06 04:25:33;;;;;;;5.63;1.53;;;;;;;8.17;68.54;99555.63;4968537;28;20258;-74
2024/01/06 04:28:00;;;;;;;8.13;2.07;;;;;;;8.14;68.68;99551.47;4971025;28;20226;-74
2024/01/06 04:30:28;;;;;;;5.70;1.67;;;;;;;8.08;68.89;99551.25;4970677;28;20213;-74
2024/01/06 04:32:57;;;;;;;4.83;1.50;;;;;;;8.07;69.12;99545.16;4969013;28;20310;-73
2024/01/06 04:35:26;;;;;;;5.27;1.53;;;;;;;8.11;69.12;99545.66;4968041;28;20213;-74
2024/01/06 04:37:54;;;;;;;5.63;1.53;;;;;;;8.14;68.88;99551.47;4969567;28;20230;-74
2024/01/06 04:40:23;;;;;;;4.73;1.30;;;;;;;8.15;69.15;99549.66;4968904;28;20277;-74
2024/01/06 04:42:51;;;;;;;3.67;1.63;;;;;;;8.19;68.99;99546.53;4970616;28;20213;-75
2024/01/06 04:45:19;;;;;;;4.23;1.50;;;;;;;8.28;68.79;99542.13;4969210;28;20220;-75
2024/01/06 04:47:47;;;;;;;3.27;1.77;;;;;;;8.37;68.56;99545.69;4969674;28;20215;-73
2024/01/06 04:50:15;;;;;;;4.17;1.60;;;;;;;8.45;68.35;99543.91;4970103;28;20205;-74
2024/01/06 04:52:43;;;;;;;5.03;1.70;;;;;;;8.48;68.27;99543.59;4969590;28;20225;-74
2024/01/06 04:55:11;;;;;;;4.73;1.63;;;;;;;8.58;68.02;99544.31;4971366;28;20214;-73
2024/01/06 04:57:40;;;;;;;6.00;1.60;;;;;;;8.63;67.58;99552.59;4968874;28;20244;-74
2024/01/06 05:00:09;;;;;;;7.23;2.00;;;;;;;8.67;67.50;99551.31;4969104;28;20214;-73
2024/01/06 05:02:37;;;;;;;4.97;1.77;;;;;;;8.68;67.19;99550.31;4967503;28;20265;-74
2024/01/06 05:05:05;;;;;;;4.97;1.60;;;;;;;8.63;67.50;99543.84;4966433;28;20214;-75
2024/01/06 05:07:33;;;;;;;5.70;2.00;;;;;;;8.61;67.56;99549.31;4966771;28;20224;-74
2024/01/06 05:10:01;;;;;;;5.60;1.80;;;;;;;8.58;67.75;99546.13;4969885;28;20244;-74
2024/01/06 05:12:28;;;;;;;5.67;2.00;;;;;;;8.56;68.04;99554.22;4969187;28;20213;-74
2024/01/06 05:14:57;;;;;;;5.23;1.90;;;;;;;8.54;68.05;99545.59;4967564;28;20876;-74
2024/01/06 05:17:25;;;;;;;4.40;1.40;;;;;;;8.50;68.35;99541.63;4968232;28;20241;-74
2024/01/06 05:19:53;;;;;;;6.23;2.30;;;;;;;8.51;68.21;99543.31;4975230;28;20288;-76
2024/01/06 05:22:21;;;;;;;5.13;1.90;;;;;;;8.49;68.37;99549.72;4970434;28;20215;-75
2024/01/06 05:24:52;;;;;;;7.20;2.17;;;;;;;8.49;68.58;99550.56;4971129;28;20322;-74
2024/01/06 05:27:20;;;;;;;9.07;2.67;;;;;;;8.49;68.73;99560.28;4966933;28;20720;-74
2024/01/06 05:29:49;;;;;;;7.23;2.67;;;;;;;8.49;68.87;99555.84;4970422;28;20217;-74
2024/01/06 05:32:18;;;;;;;7.63;2.27;;;;;;;8.49;69.00;99555.84;4969601;28;20234;-74
2024/01/06 05:34:46;;;;;;;12.10;2.87;;;;;;;8.49;69.08;99561.13;4969956;28;20210;-74
2024/01/06 05:37:15;;;;;;;5.30;2.77;;;;;;;8.49;69.37;99566.41;4968288;28;20214;-74
2024/01/06 05:39:43;;;;;;;5.27;2.37;;;;;;;8.49;69.50;99566.41;4968696;28;20210;-74
2024/01/06 05:42:12;;;;;;;5.87;2.47;;;;;;;8.49;69.73;99563.75;4967764;28;20214;-74
2024/01/06 05:44:40;;;;;;;7.23;2.40;;;;;;;8.55;69.57;99571.06;4968508;28;20301;-74
2024/01/06 05:47:09;;;;;;;4.50;2.30;;;;;;;8.62;69.25;99572.06;4969370;28;20215;-73
2024/01/06 05:49:42;;;;;;;5.43;2.33;;;;;;;8.58;69.24;99575.19;4968580;28;20217;-73
2024/01/06 05:52:10;;;;;;;6.63;2.97;;;;;;;8.55;69.53;99571.06;4971088;28;20246;-74
2024/01/06 05:54:42;;;;;;;8.03;2.97;;;;;;;8.50;70.02;99577.81;4969055;28;20219;-74
2024/01/06 05:57:10;;;;;;;11.10;3.17;;;;;;;8.44;70.45;99578.44;4968735;28;20212;-74
2024/01/06 05:59:37;;;;;;;4.53;2.53;;;;;;;8.43;70.55;99584.69;4969120;28;20241;-74
2024/01/06 06:02:05;;;;;;;6.50;3.10;;;;;;;8.46;70.60;99587.84;4969473;28;20207;-73
2024/01/06 06:04:33;;;;;;;8.63;3.37;;;;;;;8.48;70.65;99585.88;4966412;28;20249;-74
2024/01/06 06:07:03;;;;;;;8.40;3.10;;;;;;;8.50;70.70;99586.56;4968116;28;20209;-74
2024/01/06 06:09:34;;;;;;;8.30;3.07;;;;;;;8.52;70.44;99592.53;4968213;28;20213;-74
2024/01/06 06:12:02;;;;;;;6.23;3.13;;;;;;;8.53;70.40;99598.63;4969040;28;20206;-74
2024/01/06 06:14:30;;;;;;;8.17;3.33;;;;;;;8.55;70.31;99597.47;4967381;28;20384;-73
2024/01/06 06:16:57;;;;;;;9.93;3.17;;;;;;;8.55;70.25;99594.84;4968784;28;20261;-73
2024/01/06 06:19:25;;;;;;;7.47;3.00;;;;;;;8.55;70.21;99592.19;4967854;28;20273;-73
2024/01/06 06:21:52;;;;;;;6.53;3.00;;;;;;;8.59;69.96;99604.13;4969211;28;20215;-73
2024/01/06 06:24:22;;;;;;;7.80;3.13;;;;;;;8.61;69.71;99599.50;4968986;28;20227;-73
2024/01/06 06:26:49;;;;;;;6.70;2.50;;;;;;;8.64;69.95;99601.00;4968338;28;20218;-75
2024/01/06 06:29:17;;;;;;;7.27;2.70;;;;;;;8.66;69.81;99604.31;4969152;28;20291;-76
2024/01/06 06:31:46;;;;;;;5.60;2.50;;;;;;;8.61;70.02;99612.72;4967837;28;20666;-74
2024/01/06 06:34:15;;;;;;;7.13;2.40;;;;;;;8.67;69.92;99620.03;4966410;28;20230;-73
2024/01/06 06:36:43;;;;;;;8.73;2.87;;;;;;;8.62;70.05;99618.81;4966470;28;20215;-73
2024/01/06 06:39:11;;;;;;;12.10;3.90;;;;;;;8.58;70.26;99622.75;4967526;28;20230;-74
2024/01/06 06:41:41;;;;;;;7.10;3.00;;;;;;;8.59;70.36;99625.25;4968030;28;20211;-74
2024/01/06 06:44:08;;;;;;;8.30;2.80;;;;;;;8.59;70.22;99630.53;4967949;28;20221;-74
2024/01/06 06:46:36;;;;;;;7.40;3.10;;;;;;;8.59;70.16;99630.53;4969045;28;20230;-73
2024/01/06 06:49:04;;;;;;;6.60;3.00;;;;;;;8.62;70.20;99630.22;4967130;28;20285;-73
2024/01/06 06:51:32;;;;;;;8.87;3.67;;;;;;;8.63;70.12;99638.97;4965060;28;20216;-73
2024/01/06 06:54:00;;;;;;;7.93;3.13;;;;;;;8.61;70.24;99647.06;4962802;28;20585;-74
2024/01/06 06:56:28;;;;;;;7.37;3.20;;;;;;;8.62;70.24;99648.72;4967237;28;20225;-73
2024/01/06 06:58:57;;;;;;;8.27;3.20;;;;;;;8.61;70.31;99649.72;4968788;28;20329;-73
2024/01/06 07:01:25;;;;;;;10.03;3.43;;;;;;;8.66;70.30;99650.06;4958931;28;20274;-74
2024/01/06 07:03:53;;;;;;;5.17;2.77;;;;;;;8.73;70.44;99657.38;4965425;28;20217;-75
2024/01/06 07:06:21;;;;;;;8.70;2.77;;;;;;;8.74;70.12;99659.03;4966778;28;20297;-75
2024/01/06 07:08:49;;;;;;;9.33;3.33;;;;;;;8.76;70.07;99662.34;4966134;28;20221;-74
2024/01/06 07:11:18;;;;;;;5.70;3.10;;;;;;;8.65;70.26;99661.63;4967280;28;21162;-73
2024/01/06 07:13:46;;;;;;;12.63;3.40;;;;;;;8.61;70.56;99668.22;4966923;28;20238;-74
2024/01/06 07:16:15;;;;;;;9.23;3.37;;;;;;;8.63;70.54;99674.16;4970495;28;20249;-73
2024/01/06 07:18:46;;;;;;;6.10;3.13;;;;;;;8.63;70.49;99679.44;4969802;28;20293;-73
2024/01/06 07:21:14;;;;;;;7.00;3.60;;;;;;;8.67;70.50;99680.81;4972236;28;20243;-74
2024/01/06 07:23:43;;;;;;;7.57;4.10;;;;;;;8.70;70.55;99681.50;4970687;28;20323;-74
2024/01/06 07:49:26;;;;;;;9.20;5.10;;;;;;;8.47;71.53;99724.25;4801404;29;20459;-78
2024/01/06 07:53:03;;;;;;;6.67;3.37;;;;;;;8.48;71.70;99728.56;4812279;29;20310;-78
2024/01/06 08:07:51;;;;;;;16.60;4.33;;;;;;;8.48;72.10;99743.56;4869303;29;20330;-76
2024/01/06 08:18:40;;;;;;;7.10;3.60;;;;;;;8.57;72.37;99756.69;4858534;29;20213;-77
2024/01/06 08:21:31;;;;;;;6.77;3.50;;;;;;;8.47;72.64;99752.47;4850875;29;20213;-67
2024/01/06 08:23:59;;;;;;;8.30;3.57;;;;;;;8.45;73.24;99760.56;4850831;29;20237;-66
2024/01/06 08:26:28;;;;;;;9.40;4.57;;;;;;;8.46;73.22;99756.94;4852149;29;20321;-66
2024/01/06 08:28:56;;;;;;;10.33;3.90;;;;;;;8.50;73.29;99762.75;4856951;29;20278;-68
2024/01/06 08:31:24;;;;;;;6.37;3.90;;;;;;;8.56;73.12;99762.13;4869697;29;20414;-64
2024/01/06 08:33:52;;;;;;;10.00;4.17;;;;;;;8.52;73.22;99756.34;4870747;29;20728;-63
2024/01/06 08:36:21;;;;;;;8.17;4.87;;;;;;;8.50;73.31;99758.31;4872007;29;20743;-66
2024/01/06 08:38:51;;;;;;;8.17;4.43;;;;;;;8.48;73.39;99760.25;4870886;29;20765;-66
2024/01/06 08:41:19;;;;;;;9.60;4.73;;;;;;;8.48;73.48;99762.91;4867917;29;20240;-65
2024/01/06 08:43:47;;;;;;;11.93;5.03;;;;;;;8.49;73.70;99766.38;4869385;29;20213;-66
2024/01/06 08:46:16;;;;;;;10.13;5.47;;;;;;;8.45;73.85;99760.56;4869513;29;20217;-67
2024/01/06 08:48:45;;;;;;;8.53;5.07;;;;;;;8.48;73.97;99776.09;4869622;29;20214;-66
2024/01/06 08:51:13;;;;;;;12.93;5.63;;;;;;;8.49;74.11;99784.88;4870421;29;20629;-67
2024/01/06 08:53:41;;;;;;;11.73;5.40;;;;;;;8.55;74.03;99778.97;4869016;29;20260;-67
2024/01/06 08:56:12;;;;;;;10.10;5.93;;;;;;;8.68;73.85;99788.19;4927219;29;20751;-67
2024/01/06 08:58:40;;;;;;;9.60;5.43;;;;;;;8.83;73.68;99791.09;4928588;29;20686;-66
2024/01/06 09:01:08;;;;;;;9.00;4.90;;;;;;;8.86;73.64;99788.16;4926160;29;20237;-65
2024/01/06 09:03:36;;;;;;;9.77;5.00;;;;;;;8.93;73.81;99789.22;4927963;29;20212;-66
2024/01/06 09:06:05;;;;;;;9.27;5.10;;;;;;;9.02;73.79;99796.22;4927911;29;20212;-66
2024/01/06 09:08:33;;;;;;;8.67;5.13;;;;;;;9.11;73.47;99791.81;4928089;29;20236;-67
2024/01/06 09:11:01;;;;;;;9.30;4.97;;;;;;;9.14;73.50;99799.44;4927386;29;20577;-66
2024/01/06 09:13:32;;;;;;;9.30;4.90;;;;;;;9.21;73.27;99800.47;4926419;29;20280;-65
2024/01/06 09:16:00;;;;;;;12.70;4.60;;;;;;;9.33;72.95;99799.22;4926427;29;20224;-66
2024/01/06 09:18:30;;;;;;;10.57;5.17;;;;;;;9.42;72.88;99798.28;4925681;29;20269;-66
2024/01/06 09:20:58;;;;;;;9.67;5.07;;;;;;;9.51;72.72;99800.97;4926749;29;20735;-67
2024/01/06 09:23:26;;;;;;;8.33;4.57;;;;;;;9.53;72.85;99801.66;4926473;29;20246;-66
2024/01/06 09:25:54;;;;;;;8.47;4.53;;;;;;;9.51;72.78;99807.09;4925848;29;20303;-66
2024/01/06 09:28:22;;;;;;;11.97;5.47;;;;;;;9.49;73.06;99808.25;4923883;29;20320;-66
2024/01/06 09:30:54;;;;;;;8.77;5.63;;;;;;;9.53;73.06;99814.88;4928269;29;20220;-66
2024/01/06 09:33:22;;;;;;;10.90;5.90;;;;;;;9.42;73.16;99818.63;4926170;29;20324;-67
2024/01/06 09:35:51;;;;;;;11.43;5.73;;;;;;;9.37;73.79;99813.81;4925733;29;20292;-66
2024/01/06 09:38:19;;;;;;;13.53;7.00;;;;;;;9.37;73.59;99816.44;4928144;29;20220;-67
2024/01/06 09:40:49;;;;;;;10.87;6.30;;;;;;;9.31;74.09;99824.19;4929586;29;20735;-66
2024/01/06 09:43:17;;;;;;;11.30;6.60;;;;;;;9.21;74.71;99821.66;4927173;29;20283;-65
2024/01/06 09:45:49;;;;;;;13.67;6.50;;;;;;;9.19;74.96;99828.06;4925856;29;20205;-65
2024/01/06 09:48:18;;;;;;;7.80;5.40;;;;;;;9.18;74.85;99824.59;4927606;29;21068;-66
2024/01/06 09:50:48;;;;;;;12.23;6.13;;;;;;;9.16;75.32;99837.13;4925847;29;20259;-66
2024/01/06 09:53:17;;;;;;;10.23;6.03;;;;;;;9.12;75.57;99832.31;4923790;29;20323;-66
2024/01/06 09:55:45;;;;;;;11.03;6.00;;;;;;;9.07;75.80;99835.41;4926128;29;20286;-67
2024/01/06 09:58:13;;;;;;;8.97;5.80;;;;;;;9.03;75.81;99834.06;4928311;29;20892;-64
2024/01/06 10:00:40;;;;;;;11.77;5.60;;;;;;;9.06;76.04;99833.75;4926485;29;20841;-70
2024/01/06 10:03:09;;;;;;;9.60;5.50;;;;;;;9.15;75.75;99832.03;4925705;29;20215;-69
2024/01/06 10:05:38;;;;;;;12.93;6.27;;;;;;;9.26;75.49;99829.94;4924752;29;20719;-67
2024/01/06 10:08:07;;;;;;;10.53;6.30;;;;;;;9.30;75.47;99831.28;4928429;29;20212;-66
2024/01/06 10:10:35;;;;;;;13.80;6.33;;;;;;;9.36;75.20;99846.53;4925772;29;20219;-65
2024/01/06 10:13:03;;;;;;;11.53;6.10;;;;;;;9.36;75.02;99846.53;4925431;29;20216;-66
2024/01/06 10:15:31;;;;;;;10.50;6.50;;;;;;;9.36;74.76;99845.72;4926081;29;20216;-66
2024/01/06 10:17:59;;;;;;;11.43;6.97;;;;;;;9.34;74.75;99843.22;4927278;29;20322;-66
2024/01/06 10:20:27;;;;;;;15.17;7.87;;;;;;;9.34;74.87;99842.38;4925881;29;20231;-66
2024/01/06 10:23:05;;;;;;;12.67;7.67;;;;;;;9.28;74.70;99843.84;4925470;29;20219;-67
2024/01/06 10:25:33;;;;;;;13.27;7.37;;;;;;;9.31;74.87;99832.97;4926839;29;20730;-66
2024/01/06 10:28:04;;;;;;;15.13;6.70;;;;;;;9.34;74.68;99837.91;4926932;29;20224;-67
2024/01/06 10:30:34;;;;;;;14.77;6.50;;;;;;;9.40;74.47;99832.03;4903345;29;20572;-66
2024/01/06 10:33:02;;;;;;;12.43;7.13;;;;;;;9.46;74.32;99830.56;4926569;29;20268;-67
2024/01/06 10:35:31;;;;;;;12.83;6.20;;;;;;;9.54;74.40;99827.13;4924669;29;20221;-66
2024/01/06 10:38:00;;;;;;;14.87;7.43;;;;;;;9.64;74.31;99830.50;4927526;29;20236;-67
2024/01/06 10:40:29;;;;;;;9.50;6.07;;;;;;;9.70;74.80;99829.84;4927194;29;20271;-66
2024/01/06 10:42:57;;;;;;;14.90;7.00;;;;;;;9.75;74.65;99822.28;4925626;29;20295;-67
2024/01/06 10:45:26;;;;;;;10.20;5.93;;;;;;;9.87;74.05;99825.47;4925068;29;20208;-67
2024/01/06 10:47:55;;;;;;;13.43;7.33;;;;;;;9.81;73.81;99830.41;4926867;29;20284;-67
2024/01/06 10:50:24;;;;;;;13.63;6.10;;;;;;;9.94;74.25;99829.97;4923308;29;20577;-67
2024/01/06 10:52:54;;;;;;;13.70;7.73;;;;;;;10.73;72.73;99826.88;4928018;29;20558;-67
2024/01/06 10:55:26;;;;;;;12.23;6.20;;;;;;;11.16;70.57;99822.25;4926359;29;20225;-73
2024/01/06 10:57:56;;;;;;;10.90;5.97;;;;;;;11.19;69.00;99821.91;4927424;29;20245;-67
2024/01/06 11:00:25;;;;;;;14.20;5.90;;;;;;;11.29;68.35;99819.91;4926084;29;20249;-67
2024/01/06 11:02:56;;;;;;;12.77;6.00;;;;;;;11.36;67.38;99820.03;4926495;29;20221;-67
2024/01/06 11:05:25;;;;;;;15.97;6.30;;;;;;;11.43;66.58;99811.25;4925969;29;20207;-68
2024/01/06 11:07:59;;;;;;;12.10;6.10;;;;;;;11.53;66.33;99814.53;4925892;29;20220;-66
2024/01/06 11:10:32;;;;;;;12.37;7.10;;;;;;;11.52;65.98;99820.84;4925539;29;20230;-68
2024/01/06 11:13:13;;;;;;;13.67;7.13;;;;;;;11.50;65.67;99816.72;4926907;29;20254;-68
2024/01/06 11:15:46;;;;;;;12.77;6.63;;;;;;;11.55;65.63;99825.81;4924177;29;20275;-67
2024/01/06 11:18:38;;;;;;;10.77;6.07;;;;;;;11.69;65.38;99819.00;4924965;29;20292;-66
2024/01/06 11:21:24;;;;;;;10.00;5.97;;;;;;;11.80;65.33;99823.13;4925924;29;20242;-67
2024/01/06 11:24:24;;;;;;;11.67;5.40;;;;;;;11.69;65.00;99822.47;4924838;29;20231;-69
2024/01/06 11:27:02;;;;;;;11.27;5.70;;;;;;;11.48;65.57;99818.72;4879888;29;20223;-67
2024/01/06 11:32:58;;;;;;;8.87;5.20;;;;;;;11.09;66.81;99810.63;4899693;29;20239;-67
2024/01/06 11:35:31;;;;;;;10.50;5.33;;;;;;;11.04;67.05;99807.66;4925391;29;20263;-67
2024/01/06 11:38:04;;;;;;;9.93;6.07;;;;;;;10.98;67.81;99814.47;4925692;29;20222;-67
2024/01/06 11:40:38;;;;;;;12.23;5.60;;;;;;;10.92;67.96;99815.13;4925119;29;20314;-68
2024/01/06 11:43:10;;;;;;;9.33;5.13;;;;;;;10.88;68.36;99808.50;4924491;29;20871;-67
2024/01/06 11:45:43;;;;;;;9.93;6.03;;;;;;;10.81;68.87;99808.34;4925167;29;20222;-67
2024/01/06 11:48:13;;;;;;;6.23;4.10;;;;;;;10.71;69.39;99802.38;4925313;29;20202;-67
2024/01/06 11:50:45;;;;;;;6.23;4.10;;;;;;;10.70;69.21;99810.47;4926052;29;20228;-66
2024/01/06 11:53:13;;;;;;;6.77;4.30;;;;;;;10.68;68.95;99801.84;4924785;29;20783;-66
2024/01/06 11:55:42;;;;;;;6.50;4.30;;;;;;;10.70;68.98;99805.19;4923139;29;20220;-67
2024/01/06 11:58:12;;;;;;;6.97;3.80;;;;;;;10.72;69.02;99804.03;4926471;29;20212;-67
2024/01/06 12:00:56;;;;;;;7.43;4.07;;;;;;;10.73;68.20;99799.56;4927040;29;20632;-67
2024/01/06 12:03:26;;;;;;;9.07;4.17;;;;;;;10.68;68.22;99792.06;4928062;29;20211;-67
2024/01/06 12:06:02;;;;;;;7.80;4.43;;;;;;;10.69;68.31;99796.41;4928547;29;20219;-67
2024/01/06 12:08:30;;;;;;;6.87;4.70;;;;;;;10.69;67.88;99796.41;4928500;28;20269;-66
2024/01/06 12:11:07;;;;;;;8.17;4.07;;;;;;;10.68;67.92;99805.34;4928560;29;20626;-67
2024/01/06 12:13:37;;;;;;;8.10;4.60;;;;;;;10.63;67.96;99807.66;4927178;29;20211;-66
2024/01/06 12:16:06;;;;;;;7.47;4.20;;;;;;;10.62;68.34;99800.69;4928847;29;20271;-67
2024/01/06 12:18:37;;;;;;;8.63;4.80;;;;;;;10.62;68.24;99803.34;4928828;29;20201;-67
2024/01/06 12:21:06;;;;;;;8.07;5.10;;;;;;;10.59;68.55;99798.38;4929149;29;20239;-66
2024/01/06 12:23:34;;;;;;;9.53;4.87;;;;;;;10.58;68.14;99799.34;4927723;29;20412;-67
2024/01/06 12:26:02;;;;;;;7.47;4.13;;;;;;;10.55;68.08;99791.75;4928240;29;20215;-67
2024/01/06 12:28:31;;;;;;;6.93;4.30;;;;;;;10.51;68.24;99801.00;4927616;29;20205;-67
2024/01/06 12:31:01;;;;;;;7.23;4.37;;;;;;;10.47;68.21;99805.81;4927639;29;20218;-67
2024/01/06 12:33:32;;;;;;;9.83;4.57;;;;;;;10.41;68.43;99802.97;4929407;29;20209;-67
2024/01/06 12:36:00;;;;;;;6.27;4.00;;;;;;;10.40;68.35;99796.03;4927994;29;20224;-67